Time;durP1;ratioP1;P1;durP2;ratioP2;P2;SDS_P1;SDS_P2;PMS_P1;PMS_P2;Temp;Humidity;BMP_temperature;BMP_pressure;BME280_temperature;BME280_humidity;BME280_pressure;Samples;Min_cycle;Max_cycle;Signal;HPM_P1;HPM_P2
2021/11/30 00:00:54;;;;;;;9.47;7.40;;;4.00;99.90;;;;;;4998016;28;20490;-62
2021/11/30 00:03:19;;;;;;;9.23;7.40;;;4.00;99.90;;;;;;5015613;28;20874;-62
2021/11/30 00:05:47;;;;;;;10.03;6.83;;;4.10;99.90;;;;;;5015636;28;20178;-62
2021/11/30 00:08:14;;;;;;;8.57;7.67;;;4.10;99.90;;;;;;5016128;28;20164;-62
2021/11/30 00:10:44;;;;;;;7.43;6.70;;;4.00;99.90;;;;;;5015800;28;20895;-62
2021/11/30 00:13:11;;;;;;;8.83;7.50;;;4.00;99.90;;;;;;5015017;28;20449;-62
2021/11/30 00:15:36;;;;;;;9.97;8.00;;;4.00;99.90;;;;;;5015221;28;20490;-61
2021/11/30 00:18:02;;;;;;;7.63;6.90;;;3.90;99.90;;;;;;5015568;28;20454;-61
2021/11/30 00:20:28;;;;;;;8.10;7.20;;;4.00;99.90;;;;;;5015352;28;20259;-62
2021/11/30 00:22:54;;;;;;;8.03;7.23;;;4.00;99.90;;;;;;5015450;28;20455;-61
2021/11/30 00:25:19;;;;;;;8.03;7.07;;;3.90;99.90;;;;;;5015411;28;20183;-62
2021/11/30 00:27:45;;;;;;;8.50;7.70;;;3.90;99.90;;;;;;5015179;28;20170;-62
2021/11/30 00:30:11;;;;;;;8.17;7.37;;;4.00;99.90;;;;;;4997957;28;20176;-61
2021/11/30 00:32:37;;;;;;;8.13;6.73;;;3.80;99.90;;;;;;5015690;28;20560;-62
2021/11/30 00:35:03;;;;;;;9.27;7.90;;;3.80;99.90;;;;;;5013810;28;20411;-62
2021/11/30 00:37:29;;;;;;;7.70;6.90;;;3.80;99.90;;;;;;5015453;28;20172;-60
2021/11/30 00:39:54;;;;;;;7.43;6.70;;;3.70;99.90;;;;;;5015284;28;20407;-61
2021/11/30 00:42:24;;;;;;;7.00;6.30;;;3.70;99.90;;;;;;5013156;28;20200;-60
2021/11/30 00:44:51;;;;;;;7.30;6.60;;;3.60;99.90;;;;;;5014946;28;20183;-60
2021/11/30 00:47:19;;;;;;;6.83;6.10;;;3.50;99.90;;;;;;5015292;28;20406;-60
2021/11/30 00:49:47;;;;;;;6.30;5.73;;;3.40;99.90;;;;;;5014986;28;20395;-60
2021/11/30 00:52:14;;;;;;;7.80;6.30;;;3.60;99.90;;;;;;5014688;28;20423;-61
2021/11/30 00:54:41;;;;;;;7.63;6.90;;;3.70;99.90;;;;;;5014889;28;20919;-61
2021/11/30 00:57:07;;;;;;;7.23;6.53;;;3.80;99.90;;;;;;5014398;28;20405;-58
2021/11/30 00:59:32;;;;;;;6.30;5.70;;;3.70;99.90;;;;;;5014241;28;20403;-61
2021/11/30 01:01:59;;;;;;;6.93;6.23;;;3.70;99.90;;;;;;5014685;28;20645;-60
2021/11/30 01:04:25;;;;;;;6.20;5.60;;;3.60;99.90;;;;;;5014927;28;20194;-60
2021/11/30 01:06:51;;;;;;;6.43;5.60;;;3.60;99.90;;;;;;5014924;28;20407;-60
2021/11/30 01:09:17;;;;;;;5.57;4.90;;;3.50;99.90;;;;;;5014594;28;20770;-60
2021/11/30 01:11:42;;;;;;;6.13;5.53;;;3.70;99.90;;;;;;5014464;28;20503;-59
2021/11/30 01:14:09;;;;;;;5.70;5.10;;;3.70;99.90;;;;;;5014142;28;20533;-61
2021/11/30 01:16:36;;;;;;;9.70;4.43;;;3.70;99.90;;;;;;4974610;28;20512;-60
2021/11/30 01:19:03;;;;;;;6.03;5.23;;;3.70;99.90;;;;;;4957990;28;20932;-61
2021/11/30 01:21:29;;;;;;;7.10;4.70;;;3.80;99.90;;;;;;4975577;28;20417;-60
2021/11/30 01:23:55;;;;;;;7.30;5.00;;;3.80;99.90;;;;;;4975174;28;20547;-60
2021/11/30 01:26:21;;;;;;;6.10;5.50;;;3.90;99.90;;;;;;4975232;28;20409;-61
2021/11/30 01:28:46;;;;;;;5.73;4.83;;;3.80;99.90;;;;;;4974847;28;20184;-61
2021/11/30 01:31:12;;;;;;;5.27;4.77;;;3.90;99.90;;;;;;4975281;28;20397;-61
2021/11/30 01:33:38;;;;;;;5.63;4.23;;;4.00;99.90;;;;;;4975154;28;20245;-60
2021/11/30 01:36:05;;;;;;;5.27;4.20;;;4.00;99.90;;;;;;4957737;28;20265;-61
2021/11/30 01:38:31;;;;;;;7.60;4.30;;;4.00;99.90;;;;;;4975328;28;20177;-61
2021/11/30 01:41:00;;;;;;;4.23;3.90;;;4.20;99.90;;;;;;4988037;28;20406;-61
2021/11/30 01:43:34;;;;;;;4.40;3.70;;;4.00;99.90;;;;;;5013136;28;20458;-60
2021/11/30 01:46:08;;;;;;;5.33;4.83;;;4.00;99.90;;;;;;5013567;28;20395;-61
2021/11/30 01:51:24;;;;;;;5.40;4.57;;;4.30;99.90;;;;;;4995189;28;20411;-61
2021/11/30 01:53:52;;;;;;;4.53;4.07;;;4.20;99.90;;;;;;5013649;28;20465;-61
2021/11/30 01:56:19;;;;;;;4.80;3.90;;;4.30;99.90;;;;;;5013949;28;20406;-60
2021/11/30 01:58:46;;;;;;;6.60;4.40;;;4.20;99.90;;;;;;5001731;28;20428;-59
2021/11/30 02:01:12;;;;;;;6.10;4.40;;;4.10;99.90;;;;;;4985598;28;20463;-60
2021/11/30 02:03:38;;;;;;;5.60;4.10;;;4.20;99.90;;;;;;4994235;28;20861;-58
2021/11/30 02:06:04;;;;;;;4.83;3.83;;;4.30;99.90;;;;;;4994876;28;20462;-60
2021/11/30 02:08:29;;;;;;;3.40;3.10;;;4.20;99.90;;;;;;4994860;28;20169;-60
2021/11/30 02:10:56;;;;;;;4.67;4.10;;;4.30;99.90;;;;;;4994188;28;20404;-60
2021/11/30 02:13:23;;;;;;;4.50;4.10;;;4.10;99.90;;;;;;5009398;23;20217;-55
2021/11/30 02:15:52;;;;;;;5.00;3.47;;;4.00;99.90;;;;;;4993628;28;20838;-57
2021/11/30 02:18:24;;;;;;;6.20;4.40;;;4.10;99.90;;;;;;4993802;28;20404;-57
2021/11/30 02:20:57;;;;;;;4.17;3.87;;;4.10;99.90;;;;;;4993421;28;20756;-56
2021/11/30 02:23:32;;;;;;;5.77;4.07;;;4.10;99.90;;;;;;4981759;28;20551;-57
2021/11/30 02:26:06;;;;;;;6.20;3.83;;;4.10;99.90;;;;;;4973390;28;20426;-59
2021/11/30 02:28:32;;;;;;;3.97;3.57;;;3.80;99.90;;;;;;4974043;28;20420;-58
2021/11/30 02:30:57;;;;;;;5.90;3.70;;;3.90;99.90;;;;;;4974105;28;20440;-59
2021/11/30 02:33:23;;;;;;;3.80;3.50;;;4.00;99.90;;;;;;4974019;28;20193;-59
2021/11/30 02:35:50;;;;;;;4.60;3.60;;;4.10;99.90;;;;;;4974168;28;20181;-58
2021/11/30 02:38:16;;;;;;;4.73;3.53;;;4.20;99.90;;;;;;4974302;28;20181;-57
2021/11/30 02:40:42;;;;;;;4.10;3.70;;;4.10;99.90;;;;;;4972990;28;20435;-58
2021/11/30 02:43:08;;;;;;;4.37;3.97;;;4.20;99.90;;;;;;4973812;28;20464;-58
2021/11/30 02:45:33;;;;;;;5.20;3.27;;;4.20;99.90;;;;;;4973978;28;20496;-57
2021/11/30 02:48:00;;;;;;;4.07;3.57;;;4.20;99.90;;;;;;4974164;28;20914;-59
2021/11/30 02:50:27;;;;;;;4.27;2.60;;;4.20;99.90;;;;;;4973869;28;20258;-58
2021/11/30 02:52:53;;;;;;;4.07;3.23;;;4.20;99.90;;;;;;4973928;28;20890;-57
2021/11/30 02:55:19;;;;;;;4.80;3.13;;;4.30;99.90;;;;;;4973611;28;20902;-58
2021/11/30 02:57:46;;;;;;;4.87;3.53;;;4.20;99.90;;;;;;4973574;28;20491;-59
2021/11/30 03:00:12;;;;;;;3.00;2.63;;;4.30;99.90;;;;;;4977397;28;20411;-59
2021/11/30 03:02:38;;;;;;;3.87;3.30;;;4.20;99.90;;;;;;4977133;28;20542;-59
2021/11/30 03:05:04;;;;;;;3.03;2.63;;;4.10;99.90;;;;;;4979808;28;20188;-57
2021/11/30 03:07:37;;;;;;;3.70;2.63;;;4.10;99.90;;;;;;4988245;28;20904;-59
2021/11/30 03:10:12;;;;;;;2.40;2.20;;;4.20;99.90;;;;;;4996250;28;20820;-55
2021/11/30 03:12:39;;;;;;;3.30;2.70;;;4.00;99.90;;;;;;4975667;28;20451;-58
2021/11/30 03:15:11;;;;;;;2.93;2.63;;;4.20;99.90;;;;;;4977087;28;20417;-56
2021/11/30 03:17:37;;;;;;;3.17;2.87;;;4.10;99.90;;;;;;4976968;28;20507;-56
2021/11/30 03:20:05;;;;;;;4.10;2.70;;;3.90;99.90;;;;;;4973810;28;20418;-59
2021/11/30 03:22:31;;;;;;;3.23;2.37;;;3.90;99.90;;;;;;4976786;28;20523;-58
2021/11/30 03:24:56;;;;;;;3.73;3.23;;;3.70;99.90;;;;;;4976991;28;20450;-58
2021/11/30 03:27:22;;;;;;;4.70;2.90;;;3.70;99.90;;;;;;4975476;28;20910;-59
2021/11/30 03:29:48;;;;;;;4.43;2.73;;;3.70;99.90;;;;;;4977263;28;20409;-59
2021/11/30 03:34:59;;;;;;;3.07;2.77;;;3.80;99.90;;;;;;4977035;28;20228;-58
2021/11/30 03:37:25;;;;;;;3.33;3.03;;;3.70;99.90;;;;;;4977248;28;20417;-59
2021/11/30 03:39:52;;;;;;;4.10;2.80;;;3.70;99.90;;;;;;4976994;28;20492;-60
2021/11/30 03:42:18;;;;;;;6.07;3.00;;;3.80;99.90;;;;;;4976573;28;20189;-56
2021/11/30 03:44:44;;;;;;;3.20;2.50;;;3.80;99.90;;;;;;4976792;28;20417;-57
2021/11/30 03:47:10;;;;;;;2.83;2.53;;;3.80;99.90;;;;;;4977401;28;20412;-55
2021/11/30 03:49:35;;;;;;;3.80;2.70;;;3.90;99.90;;;;;;4977266;28;20404;-59
2021/11/30 03:52:01;;;;;;;2.07;1.87;;;3.90;99.90;;;;;;4976621;28;20224;-58
2021/11/30 03:54:28;;;;;;;2.27;2.07;;;4.10;99.90;;;;;;4976427;28;20678;-55
2021/11/30 03:56:54;;;;;;;5.43;2.27;;;3.90;99.90;;;;;;4976335;28;20177;-56
2021/11/30 03:59:19;;;;;;;3.47;2.50;;;4.00;99.90;;;;;;4975835;28;20483;-55
2021/11/30 04:01:45;;;;;;;3.40;2.40;;;4.10;99.90;;;;;;4976379;28;20169;-59
2021/11/30 04:04:24;;;;;;;2.53;2.20;;;4.20;99.90;;;;;;4976369;28;20685;-57
2021/11/30 04:06:53;;;;;;;3.10;2.27;;;4.40;99.90;;;;;;4976486;28;20475;-56
2021/11/30 04:09:20;;;;;;;3.23;2.57;;;4.40;99.90;;;;;;4975950;28;20413;-56
2021/11/30 04:11:46;;;;;;;3.00;2.50;;;4.30;99.90;;;;;;4976150;28;20508;-59
2021/11/30 04:14:12;;;;;;;4.93;2.30;;;4.10;99.90;;;;;;4975573;28;20495;-57
2021/11/30 04:16:38;;;;;;;2.80;2.20;;;4.00;99.90;;;;;;4976476;28;20413;-57
2021/11/30 04:19:04;;;;;;;3.20;2.70;;;4.10;99.90;;;;;;4976066;28;20427;-59
2021/11/30 04:21:31;;;;;;;3.47;2.80;;;4.00;99.90;;;;;;4976576;28;20503;-59
2021/11/30 04:23:57;;;;;;;3.20;2.90;;;3.80;99.90;;;;;;4976063;28;20479;-60
2021/11/30 04:26:23;;;;;;;3.50;2.90;;;3.90;99.90;;;;;;4974806;28;20921;-59
2021/11/30 04:28:49;;;;;;;4.73;3.10;;;3.90;99.90;;;;;;4975714;28;20169;-57
2021/11/30 04:31:15;;;;;;;3.67;3.37;;;4.00;99.90;;;;;;4976621;28;20408;-59
2021/11/30 04:33:40;;;;;;;2.60;2.40;;;3.70;99.90;;;;;;4977794;28;20428;-59
2021/11/30 04:36:07;;;;;;;3.50;3.20;;;3.80;99.90;;;;;;4978173;28;20184;-58
2021/11/30 04:38:37;;;;;;;3.17;2.97;;;3.70;99.90;;;;;;4977366;28;20204;-55
2021/11/30 04:41:04;;;;;;;3.03;2.77;;;3.80;99.90;;;;;;4975543;28;20423;-57
2021/11/30 04:43:36;;;;;;;3.20;2.90;;;3.70;99.90;;;;;;4975469;28;21008;-58
2021/11/30 04:46:27;;;;;;;4.33;3.20;;;3.70;99.90;;;;;;4974223;28;20410;-59
2021/11/30 04:49:05;;;;;;;2.80;2.60;;;3.70;99.90;;;;;;4975119;28;20488;-57
2021/11/30 04:51:32;;;;;;;3.87;3.20;;;3.90;99.90;;;;;;4975472;28;20396;-58
2021/11/30 04:53:58;;;;;;;4.80;3.00;;;3.80;99.90;;;;;;4975555;28;20437;-58
2021/11/30 04:56:24;;;;;;;4.47;3.27;;;3.70;99.90;;;;;;4975233;28;20413;-59
2021/11/30 04:58:49;;;;;;;3.63;2.93;;;3.60;99.90;;;;;;4975094;28;20416;-59
2021/11/30 05:01:17;;;;;;;3.37;3.07;;;3.70;99.90;;;;;;4975602;28;20219;-55
2021/11/30 05:03:43;;;;;;;3.07;2.80;;;3.70;99.90;;;;;;4975437;28;20211;-55
2021/11/30 05:06:10;;;;;;;3.83;3.30;;;3.60;99.90;;;;;;4975547;28;20416;-59
2021/11/30 05:08:36;;;;;;;3.63;2.93;;;3.60;99.90;;;;;;4975688;28;20503;-58
2021/11/30 05:11:02;;;;;;;5.53;3.47;;;3.40;99.90;;;;;;4974824;28;20448;-59
2021/11/30 05:13:27;;;;;;;6.90;3.67;;;3.60;99.90;;;;;;4974595;28;20225;-59
2021/11/30 05:15:53;;;;;;;3.53;3.23;;;3.70;99.90;;;;;;4975278;28;20413;-57
2021/11/30 05:18:18;;;;;;;4.67;3.37;;;3.60;99.90;;;;;;4974241;28;20176;-60
2021/11/30 05:20:45;;;;;;;5.13;3.10;;;3.60;99.90;;;;;;4974664;28;20537;-60
2021/11/30 05:23:14;;;;;;;5.90;3.97;;;3.60;99.90;;;;;;4975056;28;20284;-60
2021/11/30 05:25:41;;;;;;;6.80;4.23;;;3.60;99.90;;;;;;4974595;28;20401;-60
2021/11/30 05:28:07;;;;;;;7.60;3.97;;;3.70;99.90;;;;;;4971704;28;20793;-59
2021/11/30 05:30:36;;;;;;;5.00;3.60;;;3.70;99.90;;;;;;4974988;28;20404;-60
2021/11/30 05:33:11;;;;;;;6.40;4.40;;;3.70;99.90;;;;;;4974743;28;20205;-59
2021/11/30 05:35:38;;;;;;;4.37;3.40;;;3.50;99.90;;;;;;4974649;28;20393;-59
2021/11/30 05:38:03;;;;;;;4.03;3.73;;;3.70;99.90;;;;;;4974491;28;20898;-59
2021/11/30 05:40:32;;;;;;;7.27;4.00;;;3.70;99.90;;;;;;4974316;28;20417;-59
2021/11/30 05:42:58;;;;;;;6.87;4.27;;;3.70;99.90;;;;;;4974971;28;20460;-59
2021/11/30 05:45:23;;;;;;;4.33;3.93;;;3.60;99.90;;;;;;4974469;28;20405;-59
2021/11/30 05:47:49;;;;;;;4.27;3.43;;;3.60;99.90;;;;;;4974707;28;20754;-58
2021/11/30 05:50:15;;;;;;;4.30;3.90;;;3.60;99.90;;;;;;4974430;28;20177;-59
2021/11/30 05:52:41;;;;;;;6.77;4.40;;;3.50;99.90;;;;;;4974564;28;20204;-58
2021/11/30 05:55:07;;;;;;;6.30;4.30;;;3.50;99.90;;;;;;4973992;28;20515;-59
2021/11/30 05:57:33;;;;;;;5.13;4.10;;;3.40;99.90;;;;;;4972956;28;20177;-59
2021/11/30 06:00:01;;;;;;;9.60;4.10;;;3.40;99.90;;;;;;4980715;28;20420;-59
2021/11/30 06:02:30;;;;;;;4.87;4.47;;;3.40;99.90;;;;;;4993402;28;20462;-59
2021/11/30 06:04:56;;;;;;;4.30;3.87;;;3.40;99.90;;;;;;4993868;28;20786;-60
2021/11/30 06:07:22;;;;;;;9.43;4.50;;;3.40;99.90;;;;;;4993916;28;20412;-59
2021/11/30 06:09:47;;;;;;;7.87;4.87;;;3.40;99.90;;;;;;4993597;28;20693;-58
2021/11/30 06:12:13;;;;;;;5.20;4.50;;;3.40;99.90;;;;;;4975287;28;20173;-57
2021/11/30 06:14:39;;;;;;;5.73;4.63;;;3.40;99.90;;;;;;4973632;28;20197;-60
2021/11/30 06:17:06;;;;;;;5.30;4.80;;;3.50;99.90;;;;;;4974024;28;20177;-60
2021/11/30 06:19:34;;;;;;;5.90;4.60;;;3.40;99.90;;;;;;4974469;28;20421;-60
2021/11/30 06:22:00;;;;;;;5.57;4.40;;;3.30;99.90;;;;;;4974320;28;20424;-60
2021/11/30 06:24:25;;;;;;;4.90;4.50;;;3.30;99.90;;;;;;4973618;28;20460;-60
2021/11/30 06:26:51;;;;;;;6.17;4.70;;;3.40;99.90;;;;;;4972847;28;20177;-59
2021/11/30 06:29:17;;;;;;;5.70;4.73;;;3.40;99.90;;;;;;4973669;28;20616;-60
2021/11/30 06:31:43;;;;;;;4.80;4.40;;;3.30;99.90;;;;;;4973878;28;20256;-60
2021/11/30 06:34:08;;;;;;;5.70;4.37;;;3.40;99.90;;;;;;4977605;28;20531;-58
2021/11/30 06:36:34;;;;;;;5.53;5.03;;;3.30;99.90;;;;;;4977706;28;20178;-60
2021/11/30 06:38:59;;;;;;;6.07;4.60;;;3.30;99.90;;;;;;4977562;28;20260;-60
2021/11/30 06:41:25;;;;;;;6.63;5.53;;;3.10;99.90;;;;;;4976409;28;20189;-60
2021/11/30 06:43:51;;;;;;;7.93;5.53;;;3.10;99.90;;;;;;4977210;28;20289;-60
2021/11/30 06:46:19;;;;;;;6.77;5.63;;;3.10;99.90;;;;;;4977506;28;20180;-60
2021/11/30 06:48:45;;;;;;;5.47;4.97;;;3.10;99.90;;;;;;4977725;28;20181;-60
2021/11/30 06:51:10;;;;;;;6.03;5.43;;;3.10;99.90;;;;;;4977374;28;20417;-60
2021/11/30 06:53:36;;;;;;;5.77;5.27;;;3.10;99.90;;;;;;4977537;28;20520;-60
2021/11/30 06:56:02;;;;;;;6.50;5.73;;;3.00;99.90;;;;;;4977286;28;20174;-60
2021/11/30 06:58:28;;;;;;;6.03;5.43;;;2.90;99.90;;;;;;4976285;28;20193;-58
2021/11/30 07:00:53;;;;;;;5.73;4.93;;;2.90;99.90;;;;;;4977393;28;20417;-59
2021/11/30 07:03:22;;;;;;;6.43;5.83;;;2.80;99.90;;;;;;4977268;28;20209;-59
2021/11/30 07:05:55;;;;;;;4.63;4.23;;;2.80;99.90;;;;;;4977899;28;20181;-57
2021/11/30 07:08:47;;;;;;;5.97;5.47;;;3.00;99.90;;;;;;4978258;28;20380;-60
2021/11/30 07:11:17;;;;;;;4.80;4.40;;;2.90;99.90;;;;;;4977175;28;20507;-60
2021/11/30 07:13:43;;;;;;;7.87;5.67;;;2.80;99.90;;;;;;4976733;28;20463;-59
2021/11/30 07:16:08;;;;;;;5.57;4.10;;;2.90;99.90;;;;;;4977246;28;20408;-57
2021/11/30 07:18:35;;;;;;;4.87;4.43;;;2.90;99.90;;;;;;4976943;28;20650;-60
2021/11/30 07:21:01;;;;;;;5.73;4.90;;;2.90;99.90;;;;;;4977053;28;20578;-59
2021/11/30 07:23:29;;;;;;;6.00;3.50;;;3.00;99.90;;;;;;4977055;28;20829;-59
2021/11/30 07:25:56;;;;;;;4.63;3.53;;;3.10;99.90;;;;;;4977056;28;20424;-59
2021/11/30 07:28:29;;;;;;;5.70;4.50;;;3.00;99.90;;;;;;4975621;28;20432;-59
2021/11/30 07:31:04;;;;;;;8.03;4.53;;;3.00;99.90;;;;;;4973345;28;20424;-60
2021/11/30 07:33:32;;;;;;;4.07;3.60;;;2.90;99.90;;;;;;4976610;28;20436;-52
2021/11/30 07:35:59;;;;;;;5.63;4.30;;;2.90;99.90;;;;;;4976727;28;20477;-58
2021/11/30 07:38:25;;;;;;;3.53;3.23;;;2.90;99.90;;;;;;4976948;28;20415;-59
2021/11/30 07:40:51;;;;;;;4.40;4.00;;;3.00;99.90;;;;;;4975199;28;20417;-59
2021/11/30 07:43:17;;;;;;;6.83;3.20;;;3.00;99.90;;;;;;4976150;28;20539;-56
2021/11/30 07:45:43;;;;;;;4.37;3.97;;;3.00;99.90;;;;;;4975665;28;20495;-59
2021/11/30 07:48:10;;;;;;;4.37;3.40;;;3.10;99.90;;;;;;4977474;28;20193;-58
2021/11/30 07:50:36;;;;;;;3.77;3.47;;;3.00;99.90;;;;;;4977024;28;20428;-57
2021/11/30 07:53:03;;;;;;;4.20;3.43;;;3.00;99.90;;;;;;4976633;28;20432;-59
2021/11/30 07:55:30;;;;;;;4.60;3.40;;;3.00;99.90;;;;;;4976596;28;20495;-59
2021/11/30 07:57:55;;;;;;;4.53;3.37;;;3.10;99.90;;;;;;4976499;28;20416;-59
2021/11/30 08:00:21;;;;;;;5.13;3.40;;;3.10;99.90;;;;;;4975768;28;20452;-59
2021/11/30 08:02:47;;;;;;;3.00;2.70;;;3.20;99.90;;;;;;4975962;28;20212;-59
2021/11/30 08:05:14;;;;;;;4.30;3.90;;;3.30;99.90;;;;;;4976211;28;20170;-59
2021/11/30 08:07:40;;;;;;;3.60;3.30;;;3.30;99.90;;;;;;4980306;28;20421;-61
2021/11/30 08:10:09;;;;;;;4.50;3.30;;;3.30;99.90;;;;;;4983653;28;20425;-61
2021/11/30 08:15:18;;;;;;;3.13;2.83;;;3.40;99.90;;;;;;4995226;28;20452;-59
2021/11/30 08:17:44;;;;;;;4.10;3.70;;;3.20;99.90;;;;;;4995640;28;20862;-63
2021/11/30 08:20:09;;;;;;;4.20;3.80;;;3.20;99.90;;;;;;4995200;28;20495;-62
2021/11/30 08:22:37;;;;;;;4.17;3.40;;;3.20;99.90;;;;;;4995973;28;20161;-61
2021/11/30 08:25:04;;;;;;;3.63;2.77;;;3.30;99.90;;;;;;4994231;28;20192;-62
2021/11/30 08:27:29;;;;;;;3.40;3.10;;;3.30;99.90;;;;;;4996064;28;20499;-63
2021/11/30 08:29:55;;;;;;;3.43;3.07;;;3.40;99.90;;;;;;4995762;28;20455;-62
2021/11/30 08:32:22;;;;;;;4.30;3.13;;;3.40;99.90;;;;;;4996201;28;20483;-63
2021/11/30 08:34:50;;;;;;;3.50;3.20;;;3.20;99.90;;;;;;4995802;28;20189;-63
2021/11/30 08:37:16;;;;;;;3.63;3.37;;;3.40;99.90;;;;;;4996481;28;20436;-64
2021/11/30 08:39:42;;;;;;;3.60;3.20;;;3.40;99.90;;;;;;4995990;28;20443;-64
2021/11/30 08:42:11;;;;;;;3.30;3.00;;;3.50;99.90;;;;;;4994950;28;20423;-64
2021/11/30 08:44:37;;;;;;;3.00;2.80;;;3.30;99.90;;;;;;4995811;28;20505;-62
2021/11/30 08:47:04;;;;;;;3.33;2.93;;;3.40;99.90;;;;;;4996156;28;20404;-63
2021/11/30 08:49:30;;;;;;;4.60;3.23;;;3.30;99.90;;;;;;4995498;28;20491;-63
2021/11/30 08:51:58;;;;;;;3.33;2.63;;;3.30;99.90;;;;;;4995223;28;20504;-64
2021/11/30 08:54:26;;;;;;;3.37;2.80;;;3.30;99.90;;;;;;4995495;28;20280;-64
2021/11/30 08:56:52;;;;;;;2.47;2.27;;;3.40;99.90;;;;;;4994130;28;20404;-65
2021/11/30 08:59:18;;;;;;;3.00;2.50;;;3.50;99.90;;;;;;4995040;28;20405;-64
2021/11/30 09:01:44;;;;;;;3.43;2.90;;;3.70;99.90;;;;;;4995295;28;20442;-64
2021/11/30 09:04:10;;;;;;;2.70;2.50;;;3.90;99.90;;;;;;4994634;28;20458;-63
2021/11/30 09:06:36;;;;;;;2.50;2.23;;;3.80;99.90;;;;;;4995452;28;20408;-64
2021/11/30 09:09:06;;;;;;;3.50;2.60;;;3.70;99.90;;;;;;4995573;28;20169;-63
2021/11/30 09:11:32;;;;;;;2.83;2.50;;;3.70;99.90;;;;;;4994975;28;20404;-64
2021/11/30 09:13:57;;;;;;;2.77;2.30;;;3.70;99.90;;;;;;4994959;28;20517;-63
2021/11/30 09:16:23;;;;;;;2.50;2.30;;;3.70;99.90;;;;;;4995396;28;20255;-64
2021/11/30 09:18:49;;;;;;;3.70;2.53;;;3.80;99.90;;;;;;4995259;28;20169;-62
2021/11/30 09:21:15;;;;;;;3.00;2.33;;;3.90;99.90;;;;;;4995446;28;20161;-64
2021/11/30 09:23:43;;;;;;;2.70;2.50;;;3.90;99.90;;;;;;4992313;28;20204;-63
2021/11/30 09:26:09;;;;;;;3.40;2.70;;;3.80;99.90;;;;;;4995289;28;20459;-63
2021/11/30 09:28:35;;;;;;;2.10;2.00;;;3.80;99.90;;;;;;4995364;28;20411;-65
2021/11/30 09:31:00;;;;;;;2.60;2.27;;;3.80;99.90;;;;;;4995364;28;20404;-64
2021/11/30 09:33:26;;;;;;;2.83;2.63;;;3.70;99.90;;;;;;4995143;28;20193;-64
2021/11/30 09:35:52;;;;;;;2.40;1.70;;;3.80;99.90;;;;;;4994844;28;20197;-63
2021/11/30 09:38:17;;;;;;;2.37;2.17;;;4.00;99.90;;;;;;4994504;28;20883;-63
2021/11/30 09:40:43;;;;;;;2.30;2.10;;;4.00;99.90;;;;;;4994840;28;20584;-63
2021/11/30 09:43:09;;;;;;;2.47;1.60;;;4.00;99.90;;;;;;4994012;28;20204;-64
2021/11/30 09:45:38;;;;;;;3.20;2.07;;;3.90;99.90;;;;;;4994248;28;20177;-63
2021/11/30 09:48:10;;;;;;;2.50;2.00;;;4.00;99.90;;;;;;4994593;28;20160;-63
2021/11/30 09:50:37;;;;;;;1.90;1.80;;;4.10;99.90;;;;;;4994937;28;20467;-60
2021/11/30 09:53:03;;;;;;;1.77;1.67;;;4.20;99.90;;;;;;4994515;28;20960;-61
2021/11/30 09:55:29;;;;;;;2.23;2.10;;;4.20;99.90;;;;;;4994640;28;20914;-61
2021/11/30 09:57:55;;;;;;;1.93;1.83;;;4.30;99.90;;;;;;4994274;28;20478;-61
2021/11/30 10:00:23;;;;;;;1.67;1.57;;;4.10;99.90;;;;;;4994638;28;20172;-59
2021/11/30 10:02:49;;;;;;;3.47;1.90;;;4.10;99.90;;;;;;4994634;28;20656;-60
2021/11/30 10:05:18;;;;;;;2.00;1.40;;;4.10;99.90;;;;;;4995041;28;20766;-59
2021/11/30 10:07:52;;;;;;;2.23;1.50;;;4.20;99.90;;;;;;4997768;28;20392;-63
2021/11/30 10:10:20;;;;;;;1.50;1.40;;;4.10;99.90;;;;;;5001167;28;20487;-64
2021/11/30 10:13:13;;;;;;;3.00;1.80;;;4.00;99.90;;;;;;4999742;28;20411;-63
2021/11/30 10:16:00;;;;;;;1.83;1.53;;;4.10;99.90;;;;;;5001095;28;20428;-64
2021/11/30 10:18:42;;;;;;;3.43;1.57;;;4.20;99.90;;;;;;5001029;28;20421;-63
2021/11/30 10:21:23;;;;;;;1.90;1.40;;;4.20;99.90;;;;;;5001453;28;20419;-62
2021/11/30 10:24:01;;;;;;;2.23;1.83;;;4.30;99.90;;;;;;5000868;28;20448;-62
2021/11/30 10:26:57;;;;;;;1.50;1.40;;;4.20;99.90;;;;;;5000834;28;20780;-62
2021/11/30 10:29:23;;;;;;;2.27;1.70;;;4.20;99.90;;;;;;4999767;28;20419;-62
2021/11/30 10:31:52;;;;;;;3.60;1.77;;;4.30;99.90;;;;;;5000866;28;20407;-61
2021/11/30 10:34:23;;;;;;;3.83;1.30;;;4.20;99.90;;;;;;5001009;28;20435;-62
2021/11/30 10:36:53;;;;;;;1.40;1.30;;;4.30;99.90;;;;;;5000928;28;20753;-62
2021/11/30 10:39:27;;;;;;;3.17;1.40;;;4.10;99.90;;;;;;5000739;28;20399;-62
2021/11/30 10:42:12;;;;;;;1.47;1.37;;;4.10;99.90;;;;;;5000655;28;20430;-61
2021/11/30 10:44:37;;;;;;;1.67;1.33;;;4.00;99.90;;;;;;5000813;28;20823;-62
2021/11/30 10:47:14;;;;;;;1.60;1.10;;;4.00;99.90;;;;;;5001419;28;20414;-62
2021/11/30 10:49:56;;;;;;;2.50;1.40;;;4.10;99.90;;;;;;5000914;28;20168;-60
2021/11/30 10:52:28;;;;;;;1.50;1.40;;;4.10;99.90;;;;;;4999621;28;20412;-59
2021/11/30 10:55:16;;;;;;;1.57;1.47;;;4.20;99.90;;;;;;5000829;28;20423;-62
2021/11/30 10:57:44;;;;;;;2.00;1.20;;;4.00;99.90;;;;;;5000112;28;20912;-65
2021/11/30 11:00:28;;;;;;;1.43;1.30;;;4.00;99.90;;;;;;5001416;28;20427;-62
2021/11/30 11:05:29;;;;;;;1.40;1.30;;;4.10;99.90;;;;;;5015040;28;20403;-62
2021/11/30 11:08:04;;;;;;;2.00;1.07;;;4.10;99.90;;;;;;5020100;28;20391;-62
2021/11/30 11:10:31;;;;;;;1.53;1.00;;;4.20;99.90;;;;;;5020879;28;20386;-62
2021/11/30 11:13:16;;;;;;;6.20;1.10;;;4.00;99.90;;;;;;4980438;28;20415;-62
2021/11/30 11:15:41;;;;;;;1.10;1.00;;;4.10;99.90;;;;;;4980807;28;20904;-62
2021/11/30 11:18:28;;;;;;;2.60;1.10;;;4.00;99.90;;;;;;4983122;28;20401;-61
2021/11/30 11:21:17;;;;;;;2.50;1.27;;;4.00;99.90;;;;;;4977280;28;20668;-61
2021/11/30 11:23:57;;;;;;;1.00;0.90;;;4.10;99.90;;;;;;4971323;28;20987;-63
2021/11/30 11:26:34;;;;;;;1.30;1.20;;;4.30;99.90;;;;;;4977600;28;20389;-63
2021/11/30 11:29:04;;;;;;;1.10;1.00;;;4.20;99.90;;;;;;4977933;28;20468;-62
2021/11/30 11:31:30;;;;;;;1.40;1.20;;;4.20;99.90;;;;;;4977553;28;20397;-62
2021/11/30 11:34:00;;;;;;;1.37;1.27;;;4.10;99.90;;;;;;4977251;28;20432;-64
2021/11/30 11:36:27;;;;;;;1.23;1.10;;;4.30;99.90;;;;;;4977500;28;20166;-62
2021/11/30 11:38:53;;;;;;;0.87;0.83;;;4.30;99.90;;;;;;4977492;28;20423;-63
2021/11/30 11:41:19;;;;;;;1.83;1.20;;;4.40;99.90;;;;;;4983806;28;20510;-63
2021/11/30 11:43:45;;;;;;;3.60;1.20;;;4.40;99.90;;;;;;4995633;28;20212;-63
2021/11/30 11:46:15;;;;;;;1.07;0.97;;;4.20;99.90;;;;;;4996864;28;20411;-59
2021/11/30 11:48:42;;;;;;;1.27;1.17;;;4.30;99.90;;;;;;4996520;28;20240;-63
2021/11/30 11:51:11;;;;;;;2.37;1.10;;;4.30;99.90;;;;;;4996375;28;20487;-62
2021/11/30 11:53:59;;;;;;;1.57;0.90;;;4.40;99.90;;;;;;4996329;28;20438;-60
2021/11/30 11:56:27;;;;;;;1.10;1.00;;;4.40;99.90;;;;;;4995767;28;20503;-63
2021/11/30 11:59:18;;;;;;;1.50;0.87;;;4.40;99.90;;;;;;4995792;28;20457;-64
2021/11/30 12:01:47;;;;;;;1.30;1.20;;;4.40;99.90;;;;;;4996467;28;20484;-62
2021/11/30 12:04:17;;;;;;;1.40;1.30;;;4.40;99.90;;;;;;4996342;28;20955;-60
2021/11/30 12:06:58;;;;;;;1.00;0.80;;;4.40;99.90;;;;;;4996432;28;20415;-61
2021/11/30 12:09:30;;;;;;;1.20;1.10;;;4.30;99.90;;;;;;4995900;28;20388;-63
2021/11/30 12:12:14;;;;;;;2.10;1.27;;;4.40;99.90;;;;;;4976045;28;20397;-62
2021/11/30 12:14:46;;;;;;;2.27;1.50;;;4.50;99.90;;;;;;4976205;28;20821;-63
2021/11/30 12:17:21;;;;;;;1.20;1.10;;;4.50;99.90;;;;;;4976794;28;20399;-63
2021/11/30 12:19:56;;;;;;;2.20;1.27;;;4.40;99.90;;;;;;4976805;28;20412;-61
2021/11/30 12:22:59;;;;;;;1.43;1.33;;;4.60;99.90;;;;;;4976238;28;20487;-62
2021/11/30 12:25:47;;;;;;;2.37;1.53;;;4.60;99.90;;;;;;4976575;28;20413;-61
2021/11/30 12:28:33;;;;;;;1.33;1.23;;;4.60;99.90;;;;;;4976136;28;20406;-60
2021/11/30 12:30:59;;;;;;;1.33;1.20;;;4.40;99.90;;;;;;4976317;28;20385;-60
2021/11/30 12:33:37;;;;;;;1.40;1.30;;;4.40;99.90;;;;;;4991631;28;20456;-62
2021/11/30 12:36:09;;;;;;;1.37;1.27;;;4.30;99.90;;;;;;4995965;28;20745;-60
2021/11/30 12:38:53;;;;;;;1.20;1.10;;;4.40;99.90;;;;;;4995436;28;20415;-61
2021/11/30 12:41:41;;;;;;;1.53;1.10;;;4.40;99.90;;;;;;4995519;28;20419;-62
2021/11/30 12:44:19;;;;;;;2.13;1.07;;;4.60;99.90;;;;;;4995384;28;20516;-61
2021/11/30 12:46:53;;;;;;;2.03;1.30;;;4.50;99.90;;;;;;4995388;28;20889;-62
2021/11/30 12:49:30;;;;;;;2.77;1.87;;;4.70;99.90;;;;;;4995544;28;20431;-62
2021/11/30 12:52:12;;;;;;;1.27;1.17;;;4.50;99.90;;;;;;4995650;28;20447;-61
2021/11/30 12:54:40;;;;;;;1.70;1.60;;;4.40;99.90;;;;;;4994716;28;20864;-62
2021/11/30 12:57:18;;;;;;;1.37;1.27;;;4.60;99.90;;;;;;4995224;28;20408;-60
2021/11/30 12:59:51;;;;;;;2.30;0.97;;;4.50;99.90;;;;;;4995424;28;20388;-61
2021/11/30 13:02:34;;;;;;;1.97;1.47;;;4.60;99.90;;;;;;4996085;28;20412;-59
2021/11/30 13:05:11;;;;;;;3.10;0.90;;;4.50;99.90;;;;;;4995478;28;20428;-62
2021/11/30 13:07:49;;;;;;;2.90;1.97;;;4.20;99.90;;;;;;4995388;28;20826;-61
2021/11/30 13:10:24;;;;;;;1.83;1.20;;;4.40;99.90;;;;;;4995069;28;20416;-61
2021/11/30 13:12:52;;;;;;;1.63;1.50;;;4.30;99.90;;;;;;4994174;28;20956;-61
2021/11/30 13:15:18;;;;;;;1.63;1.10;;;4.20;99.90;;;;;;4977700;28;20423;-59
2021/11/30 13:17:45;;;;;;;1.30;1.00;;;4.30;99.90;;;;;;4976024;28;20409;-60